sensor_id;sensor_type;location;lat;lon;timestamp;pressure;altitude;pressure_sealevel;temperature;humidity
59190;BME280;50749;51.636;4.948;2023-10-13T00:00:38;101241.50;;;19.36;70.12
59190;BME280;50749;51.636;4.948;2023-10-13T00:03:26;101245.06;;;19.36;70.31
59190;BME280;50749;51.636;4.948;2023-10-13T00:05:57;101244.25;;;19.36;70.55
59190;BME280;50749;51.636;4.948;2023-10-13T00:08:26;101241.50;;;19.36;70.27
59190;BME280;50749;51.636;4.948;2023-10-13T00:10:53;101238.72;;;19.36;70.38
59190;BME280;50749;51.636;4.948;2023-10-13T00:13:19;101232.38;;;19.35;70.19
59190;BME280;50749;51.636;4.948;2023-10-13T00:15:46;101239.50;;;19.36;70.54
59190;BME280;50749;51.636;4.948;2023-10-13T00:18:31;101230.41;;;19.36;70.17
59190;BME280;50749;51.636;4.948;2023-10-13T00:21:00;101233.97;;;19.36;70.74
59190;BME280;50749;51.636;4.948;2023-10-13T00:23:26;101229.59;;;19.35;70.55
59190;BME280;50749;51.636;4.948;2023-10-13T00:25:53;101221.66;;;19.34;70.71
59190;BME280;50749;51.636;4.948;2023-10-13T00:28:26;101222.44;;;19.34;70.17
59190;BME280;50749;51.636;4.948;2023-10-13T00:31:01;101216.09;;;19.34;70.25
59190;BME280;50749;51.636;4.948;2023-10-13T00:33:39;101218.88;;;19.34;70.59
59190;BME280;50749;51.636;4.948;2023-10-13T00:36:07;101216.09;;;19.34;70.20
59190;BME280;50749;51.636;4.948;2023-10-13T00:38:35;101211.72;;;19.33;70.74
59190;BME280;50749;51.636;4.948;2023-10-13T00:41:00;101214.03;;;19.30;70.55
59190;BME280;50749;51.636;4.948;2023-10-13T00:43:47;101204.09;;;19.29;70.30
59190;BME280;50749;51.636;4.948;2023-10-13T00:46:32;101202.16;;;19.30;70.70
59190;BME280;50749;51.636;4.948;2023-10-13T00:49:01;101207.69;;;19.30;70.44
59190;BME280;50749;51.636;4.948;2023-10-13T00:51:30;101200.53;;;19.29;70.80
59190;BME280;50749;51.636;4.948;2023-10-13T00:54:07;101191.78;;;19.27;70.51
59190;BME280;50749;51.636;4.948;2023-10-13T00:56:41;101196.16;;;19.28;70.73
59190;BME280;50749;51.636;4.948;2023-10-13T00:59:15;101194.91;;;19.25;70.51
59190;BME280;50749;51.636;4.948;2023-10-13T01:01:41;101181.06;;;19.25;70.37
59190;BME280;50749;51.636;4.948;2023-10-13T01:04:10;101179.88;;;19.26;70.52
59190;BME280;50749;51.636;4.948;2023-10-13T01:06:39;101179.88;;;19.26;70.65
59190;BME280;50749;51.636;4.948;2023-10-13T01:09:09;101168.00;;;19.26;70.61
59190;BME280;50749;51.636;4.948;2023-10-13T01:11:48;101167.19;;;19.25;70.29
59190;BME280;50749;51.636;4.948;2023-10-13T01:14:21;101163.25;;;19.26;70.58
59190;BME280;50749;51.636;4.948;2023-10-13T01:16:49;101164.06;;;19.27;70.51
59190;BME280;50749;51.636;4.948;2023-10-13T01:19:24;101162.81;;;19.24;70.82
59190;BME280;50749;51.636;4.948;2023-10-13T01:21:51;101155.66;;;19.23;70.59
59190;BME280;50749;51.636;4.948;2023-10-13T01:24:23;101152.06;;;19.23;70.73
59190;BME280;50749;51.636;4.948;2023-10-13T01:26:50;101141.34;;;19.21;70.85
59190;BME280;50749;51.636;4.948;2023-10-13T01:29:18;101139.03;;;19.23;70.77
59190;BME280;50749;51.636;4.948;2023-10-13T01:31:45;101141.81;;;19.23;70.51
59190;BME280;50749;51.636;4.948;2023-10-13T01:34:13;101129.91;;;19.23;70.63
59190;BME280;50749;51.636;4.948;2023-10-13T01:36:45;101133.50;;;19.23;70.71
59190;BME280;50749;51.636;4.948;2023-10-13T01:39:11;101133.84;;;19.22;70.72
59190;BME280;50749;51.636;4.948;2023-10-13T01:41:42;101132.22;;;19.21;70.49
59190;BME280;50749;51.636;4.948;2023-10-13T01:44:09;101120.00;;;19.22;70.45
59190;BME280;50749;51.636;4.948;2023-10-13T01:46:38;101112.03;;;19.20;70.70
59190;BME280;50749;51.636;4.948;2023-10-13T01:49:04;101112.47;;;19.22;70.67
59190;BME280;50749;51.636;4.948;2023-10-13T01:51:30;101109.25;;;19.20;70.64
59190;BME280;50749;51.636;4.948;2023-10-13T01:53:56;101110.06;;;19.21;70.54
59190;BME280;50749;51.636;4.948;2023-10-13T01:56:22;101095.41;;;19.20;70.52
59190;BME280;50749;51.636;4.948;2023-10-13T01:58:49;101094.97;;;19.18;70.67
59190;BME280;50749;51.636;4.948;2023-10-13T02:01:15;101085.47;;;19.19;71.00
59190;BME280;50749;51.636;4.948;2023-10-13T02:03:53;101074.75;;;19.18;71.11
59190;BME280;50749;51.636;4.948;2023-10-13T02:06:28;101071.19;;;19.17;70.82
59190;BME280;50749;51.636;4.948;2023-10-13T02:09:06;101071.19;;;19.17;70.72
59190;BME280;50749;51.636;4.948;2023-10-13T02:11:51;101073.94;;;19.17;70.75
59190;BME280;50749;51.636;4.948;2023-10-13T02:14:21;101062.88;;;19.17;70.96
59190;BME280;50749;51.636;4.948;2023-10-13T02:16:51;101064.47;;;19.18;70.87
59190;BME280;50749;51.636;4.948;2023-10-13T02:19:38;101047.41;;;19.16;70.42
59190;BME280;50749;51.636;4.948;2023-10-13T02:22:08;101047.41;;;19.16;70.63
59190;BME280;50749;51.636;4.948;2023-10-13T02:24:36;101042.69;;;19.17;70.52
59190;BME280;50749;51.636;4.948;2023-10-13T02:27:08;101042.31;;;19.18;70.85
59190;BME280;50749;51.636;4.948;2023-10-13T02:29:42;101037.13;;;19.17;70.55
59190;BME280;50749;51.636;4.948;2023-10-13T02:32:11;101026.41;;;19.15;70.76
59190;BME280;50749;51.636;4.948;2023-10-13T02:34:47;101023.28;;;19.17;71.04
59190;BME280;50749;51.636;4.948;2023-10-13T02:37:12;101023.28;;;19.17;70.92
59190;BME280;50749;51.636;4.948;2023-10-13T02:39:40;101014.13;;;19.16;70.60
59190;BME280;50749;51.636;4.948;2023-10-13T02:42:08;101009.78;;;19.15;70.97
59190;BME280;50749;51.636;4.948;2023-10-13T02:44:51;101004.25;;;19.15;70.61
59190;BME280;50749;51.636;4.948;2023-10-13T02:47:16;100990.38;;;19.15;70.90
59190;BME280;50749;51.636;4.948;2023-10-13T02:49:45;100988.75;;;19.14;70.68
59190;BME280;50749;51.636;4.948;2023-10-13T02:52:13;100993.16;;;19.15;70.75
59190;BME280;50749;51.636;4.948;2023-10-13T02:54:42;100987.63;;;19.15;70.64
59190;BME280;50749;51.636;4.948;2023-10-13T02:57:17;100979.66;;;19.14;70.61
59190;BME280;50749;51.636;4.948;2023-10-13T02:59:44;100984.00;;;19.15;70.75
59190;BME280;50749;51.636;4.948;2023-10-13T03:02:14;100980.44;;;19.14;70.74
59190;BME280;50749;51.636;4.948;2023-10-13T03:04:47;100982.44;;;19.14;70.77
59190;BME280;50749;51.636;4.948;2023-10-13T03:07:13;100981.25;;;19.15;70.75
59190;BME280;50749;51.636;4.948;2023-10-13T03:09:51;100979.28;;;19.15;70.69
59190;BME280;50749;51.636;4.948;2023-10-13T03:12:20;100960.25;;;19.14;70.87
59190;BME280;50749;51.636;4.948;2023-10-13T03:14:47;100953.09;;;19.12;70.69
59190;BME280;50749;51.636;4.948;2023-10-13T03:17:13;100948.75;;;19.11;70.93
59190;BME280;50749;51.636;4.948;2023-10-13T03:19:43;100948.75;;;19.11;71.06
59190;BME280;50749;51.636;4.948;2023-10-13T03:22:13;100948.75;;;19.11;70.82
59190;BME280;50749;51.636;4.948;2023-10-13T03:24:43;100946.75;;;19.12;70.75
59190;BME280;50749;51.636;4.948;2023-10-13T03:27:18;100942.00;;;19.12;71.19
59190;BME280;50749;51.636;4.948;2023-10-13T03:30:05;100928.94;;;19.13;70.94
59190;BME280;50749;51.636;4.948;2023-10-13T03:32:36;100922.97;;;19.11;71.18
59190;BME280;50749;51.636;4.948;2023-10-13T03:35:09;100904.41;;;19.11;71.42
59190;BME280;50749;51.636;4.948;2023-10-13T03:37:39;100888.56;;;19.12;71.28
59190;BME280;50749;51.636;4.948;2023-10-13T03:42:50;100875.50;;;19.12;71.18
59190;BME280;50749;51.636;4.948;2023-10-13T03:45:36;100867.56;;;19.11;71.37
59190;BME280;50749;51.636;4.948;2023-10-13T03:48:10;100866.41;;;19.12;70.94
59190;BME280;50749;51.636;4.948;2023-10-13T03:50:38;100869.19;;;19.12;70.85
59190;BME280;50749;51.636;4.948;2023-10-13T03:53:13;100860.06;;;19.11;71.17
59190;BME280;50749;51.636;4.948;2023-10-13T03:55:39;100857.31;;;19.11;70.93
59190;BME280;50749;51.636;4.948;2023-10-13T03:58:05;100858.09;;;19.12;71.23
59190;BME280;50749;51.636;4.948;2023-10-13T04:00:32;100854.13;;;19.13;71.15
59190;BME280;50749;51.636;4.948;2023-10-13T04:02:58;100847.81;;;19.12;71.07
59190;BME280;50749;51.636;4.948;2023-10-13T04:05:42;100845.41;;;19.11;71.11
59190;BME280;50749;51.636;4.948;2023-10-13T04:08:11;100849.78;;;19.12;71.28
59190;BME280;50749;51.636;4.948;2023-10-13T04:11:03;100845.81;;;19.13;71.43
59190;BME280;50749;51.636;4.948;2023-10-13T04:13:47;100832.72;;;19.10;70.88
59190;BME280;50749;51.636;4.948;2023-10-13T04:16:33;100835.13;;;19.11;71.03
59190;BME280;50749;51.636;4.948;2023-10-13T04:18:58;100835.13;;;19.11;71.38
59190;BME280;50749;51.636;4.948;2023-10-13T04:21:25;100835.56;;;19.14;71.68
59190;BME280;50749;51.636;4.948;2023-10-13T04:24:11;100843.88;;;19.14;71.60
59190;BME280;50749;51.636;4.948;2023-10-13T04:26:44;100839.13;;;19.14;71.42
59190;BME280;50749;51.636;4.948;2023-10-13T04:29:29;100834.75;;;19.13;71.81
59190;BME280;50749;51.636;4.948;2023-10-13T04:32:17;100837.91;;;19.11;71.64
59190;BME280;50749;51.636;4.948;2023-10-13T04:34:56;100831.19;;;19.12;71.70
59190;BME280;50749;51.636;4.948;2023-10-13T04:37:38;100835.56;;;19.14;71.59
59190;BME280;50749;51.636;4.948;2023-10-13T04:40:20;100840.28;;;19.13;71.57
59190;BME280;50749;51.636;4.948;2023-10-13T04:42:51;100829.59;;;19.11;71.51
59190;BME280;50749;51.636;4.948;2023-10-13T04:45:24;100824.06;;;19.11;71.53
59190;BME280;50749;51.636;4.948;2023-10-13T04:48:13;100818.13;;;19.13;71.72
59190;BME280;50749;51.636;4.948;2023-10-13T04:51:00;100812.97;;;19.11;71.68
59190;BME280;50749;51.636;4.948;2023-10-13T04:53:45;100807.44;;;19.11;71.53
59190;BME280;50749;51.636;4.948;2023-10-13T04:56:27;100811.00;;;19.12;72.07
59190;BME280;50749;51.636;4.948;2023-10-13T04:59:13;100793.47;;;19.08;71.89
59190;BME280;50749;51.636;4.948;2023-10-13T05:01:58;100796.03;;;19.17;72.33
59190;BME280;50749;51.636;4.948;2023-10-13T05:04:42;100772.31;;;19.19;73.12
59190;BME280;50749;51.636;4.948;2023-10-13T05:07:31;100750.56;;;19.21;72.40
59190;BME280;50749;51.636;4.948;2023-10-13T05:10:18;100747.81;;;19.21;72.03
59190;BME280;50749;51.636;4.948;2023-10-13T05:13:03;100756.88;;;19.18;71.83
59190;BME280;50749;51.636;4.948;2023-10-13T05:15:49;100773.50;;;19.18;72.49
59190;BME280;50749;51.636;4.948;2023-10-13T05:18:34;100779.84;;;19.19;72.38
59190;BME280;50749;51.636;4.948;2023-10-13T05:21:18;100769.19;;;19.21;72.81
59190;BME280;50749;51.636;4.948;2023-10-13T05:24:03;100764.00;;;19.19;72.79
59190;BME280;50749;51.636;4.948;2023-10-13T05:26:47;100759.34;;;19.23;73.20
59190;BME280;50749;51.636;4.948;2023-10-13T05:29:32;100741.53;;;19.24;73.53
59190;BME280;50749;51.636;4.948;2023-10-13T05:32:17;100735.63;;;19.26;73.39
59190;BME280;50749;51.636;4.948;2023-10-13T05:35:01;100728.56;;;19.28;73.76
59190;BME280;50749;51.636;4.948;2023-10-13T05:37:45;100719.41;;;19.28;73.88
59190;BME280;50749;51.636;4.948;2023-10-13T05:40:30;100709.09;;;19.25;73.41
59190;BME280;50749;51.636;4.948;2023-10-13T05:43:14;100714.56;;;19.21;72.71
59190;BME280;50749;51.636;4.948;2023-10-13T05:46:03;100721.72;;;19.22;72.49
59190;BME280;50749;51.636;4.948;2023-10-13T05:48:48;100712.16;;;19.20;72.63
59190;BME280;50749;51.636;4.948;2023-10-13T05:51:30;100718.13;;;19.22;72.74
59190;BME280;50749;51.636;4.948;2023-10-13T05:54:03;100717.31;;;19.21;72.68
59190;BME280;50749;51.636;4.948;2023-10-13T05:56:54;100712.59;;;19.22;72.84
59190;BME280;50749;51.636;4.948;2023-10-13T05:59:39;100716.53;;;19.21;72.55
59190;BME280;50749;51.636;4.948;2023-10-13T06:02:24;100721.72;;;19.22;72.47
59190;BME280;50749;51.636;4.948;2023-10-13T06:05:10;100715.78;;;19.24;72.71
59190;BME280;50749;51.636;4.948;2023-10-13T06:07:56;100718.94;;;19.22;72.67
59190;BME280;50749;51.636;4.948;2023-10-13T06:10:42;100712.59;;;19.22;72.38
59190;BME280;50749;51.636;4.948;2023-10-13T06:13:26;100707.06;;;19.22;71.90
59190;BME280;50749;51.636;4.948;2023-10-13T06:16:16;100694.78;;;19.23;72.16
59190;BME280;50749;51.636;4.948;2023-10-13T06:19:14;100686.47;;;19.23;72.38
59190;BME280;50749;51.636;4.948;2023-10-13T06:21:59;100678.53;;;19.21;72.56
59190;BME280;50749;51.636;4.948;2023-10-13T06:24:43;100661.91;;;19.21;72.21
59190;BME280;50749;51.636;4.948;2023-10-13T06:27:28;100661.91;;;19.21;72.14
59190;BME280;50749;51.636;4.948;2023-10-13T06:30:12;100657.19;;;19.22;72.25
59190;BME280;50749;51.636;4.948;2023-10-13T06:32:38;100646.47;;;19.20;71.85
59190;BME280;50749;51.636;4.948;2023-10-13T06:35:05;100640.53;;;19.22;71.75
59190;BME280;50749;51.636;4.948;2023-10-13T06:37:44;100634.25;;;19.25;72.69
59190;BME280;50749;51.636;4.948;2023-10-13T06:40:11;100642.56;;;19.25;72.84
59190;BME280;50749;51.636;4.948;2023-10-13T06:42:56;100635.78;;;19.22;73.00
59190;BME280;50749;51.636;4.948;2023-10-13T06:45:37;100641.34;;;19.22;73.42
59190;BME280;50749;51.636;4.948;2023-10-13T06:48:04;100640.53;;;19.22;73.29
59190;BME280;50749;51.636;4.948;2023-10-13T06:50:30;100634.19;;;19.21;73.05
59190;BME280;50749;51.636;4.948;2023-10-13T06:53:05;100634.63;;;19.23;72.79
59190;BME280;50749;51.636;4.948;2023-10-13T06:55:30;100619.53;;;19.21;73.05
59190;BME280;50749;51.636;4.948;2023-10-13T06:58:03;100616.41;;;19.22;72.92
59190;BME280;50749;51.636;4.948;2023-10-13T07:00:30;100615.97;;;19.20;73.00
59190;BME280;50749;51.636;4.948;2023-10-13T07:03:01;100610.44;;;19.20;73.29
59190;BME280;50749;51.636;4.948;2023-10-13T07:05:38;100610.44;;;19.20;73.19
59190;BME280;50749;51.636;4.948;2023-10-13T07:08:05;100608.44;;;19.21;73.29
59190;BME280;50749;51.636;4.948;2023-10-13T07:10:32;100604.47;;;19.18;73.36
59190;BME280;50749;51.636;4.948;2023-10-13T07:13:11;100608.81;;;19.19;73.45
59190;BME280;50749;51.636;4.948;2023-10-13T07:15:39;100598.47;;;19.16;73.33
59190;BME280;50749;51.636;4.948;2023-10-13T07:18:14;100611.59;;;19.19;73.11
59190;BME280;50749;51.636;4.948;2023-10-13T07:20:42;100611.16;;;19.17;73.33
59190;BME280;50749;51.636;4.948;2023-10-13T07:23:13;100608.03;;;19.19;73.70
59190;BME280;50749;51.636;4.948;2023-10-13T07:25:56;100606.41;;;19.18;73.46
59190;BME280;50749;51.636;4.948;2023-10-13T07:28:29;100603.28;;;19.19;73.64
59190;BME280;50749;51.636;4.948;2023-10-13T07:30:57;100598.09;;;19.18;73.64
59190;BME280;50749;51.636;4.948;2023-10-13T07:33:27;100605.31;;;19.22;73.42
59190;BME280;50749;51.636;4.948;2023-10-13T07:36:19;100601.38;;;19.23;73.88
59190;BME280;50749;51.636;4.948;2023-10-13T07:39:06;100587.53;;;19.23;74.05
59190;BME280;50749;51.636;4.948;2023-10-13T07:41:48;100586.34;;;19.24;73.71
59190;BME280;50749;51.636;4.948;2023-10-13T07:44:35;100596.25;;;19.25;73.72
59190;BME280;50749;51.636;4.948;2023-10-13T07:47:02;100597.84;;;19.26;73.61
59190;BME280;50749;51.636;4.948;2023-10-13T07:49:33;100580.41;;;19.26;73.72
59190;BME280;50749;51.636;4.948;2023-10-13T07:52:04;100585.59;;;19.27;74.11
59190;BME280;50749;51.636;4.948;2023-10-13T07:54:47;100586.75;;;19.26;74.09
59190;BME280;50749;51.636;4.948;2023-10-13T07:57:17;100584.44;;;19.28;74.30
59190;BME280;50749;51.636;4.948;2023-10-13T07:59:44;100586.00;;;19.29;74.90
59190;BME280;50749;51.636;4.948;2023-10-13T08:02:15;100586.84;;;19.30;74.49
59190;BME280;50749;51.636;4.948;2023-10-13T08:05:01;100590.41;;;19.30;74.58
59190;BME280;50749;51.636;4.948;2023-10-13T08:07:30;100589.19;;;19.31;74.51
59190;BME280;50749;51.636;4.948;2023-10-13T08:09:56;100581.34;;;19.34;74.00
59190;BME280;50749;51.636;4.948;2023-10-13T08:12:25;100576.94;;;19.33;74.64
59190;BME280;50749;51.636;4.948;2023-10-13T08:14:51;100575.78;;;19.34;74.60
59190;BME280;50749;51.636;4.948;2023-10-13T08:17:35;100565.13;;;19.36;74.07
59190;BME280;50749;51.636;4.948;2023-10-13T08:20:00;100562.34;;;19.36;74.13
59190;BME280;50749;51.636;4.948;2023-10-13T08:22:36;100561.19;;;19.37;73.42
59190;BME280;50749;51.636;4.948;2023-10-13T08:25:05;100579.41;;;19.38;73.63
59190;BME280;50749;51.636;4.948;2023-10-13T08:27:49;100553.66;;;19.37;73.40
59190;BME280;50749;51.636;4.948;2023-10-13T08:30:35;100548.13;;;19.37;73.43
59190;BME280;50749;51.636;4.948;2023-10-13T08:33:17;100573.13;;;19.41;73.84
59190;BME280;50749;51.636;4.948;2023-10-13T08:35:57;100547.41;;;19.44;74.00
59190;BME280;50749;51.636;4.948;2023-10-13T08:38:41;100550.56;;;19.42;73.36
59190;BME280;50749;51.636;4.948;2023-10-13T08:41:24;100555.31;;;19.42;74.29
59190;BME280;50749;51.636;4.948;2023-10-13T08:43:50;100556.09;;;19.42;74.66
59190;BME280;50749;51.636;4.948;2023-10-13T08:46:17;100562.44;;;19.43;74.97
59190;BME280;50749;51.636;4.948;2023-10-13T08:48:58;100545.41;;;19.41;75.54
59190;BME280;50749;51.636;4.948;2023-10-13T08:51:36;100556.47;;;19.41;75.40
59190;BME280;50749;51.636;4.948;2023-10-13T08:54:17;100548.16;;;19.41;74.88
59190;BME280;50749;51.636;4.948;2023-10-13T08:57:00;100541.47;;;19.42;75.33
59190;BME280;50749;51.636;4.948;2023-10-13T08:59:46;100556.09;;;19.42;74.81
59190;BME280;50749;51.636;4.948;2023-10-13T09:02:21;100544.59;;;19.40;74.92
59190;BME280;50749;51.636;4.948;2023-10-13T09:04:49;100545.75;;;19.39;75.24
59190;BME280;50749;51.636;4.948;2023-10-13T09:07:25;100548.59;;;19.43;75.12
59190;BME280;50749;51.636;4.948;2023-10-13T09:09:52;100538.69;;;19.42;75.03
59190;BME280;50749;51.636;4.948;2023-10-13T09:12:28;100540.25;;;19.43;75.29
59190;BME280;50749;51.636;4.948;2023-10-13T09:15:07;100536.28;;;19.40;75.26
59190;BME280;50749;51.636;4.948;2023-10-13T09:17:46;100537.50;;;19.43;75.16
59190;BME280;50749;51.636;4.948;2023-10-13T09:20:17;100525.19;;;19.40;75.41
59190;BME280;50749;51.636;4.948;2023-10-13T09:22:46;100526.00;;;19.41;75.71
59190;BME280;50749;51.636;4.948;2023-10-13T09:25:23;100530.75;;;19.40;75.39
59190;BME280;50749;51.636;4.948;2023-10-13T09:27:49;100519.28;;;19.42;75.88
59190;BME280;50749;51.636;4.948;2023-10-13T09:30:19;100522.84;;;19.42;75.63
59190;BME280;50749;51.636;4.948;2023-10-13T09:33:02;100522.06;;;19.42;75.89
59190;BME280;50749;51.636;4.948;2023-10-13T09:35:30;100514.53;;;19.42;75.84
59190;BME280;50749;51.636;4.948;2023-10-13T09:38:02;100500.66;;;19.42;75.98
59190;BME280;50749;51.636;4.948;2023-10-13T09:40:30;100498.69;;;19.43;76.12
59190;BME280;50749;51.636;4.948;2023-10-13T09:43:00;100501.47;;;19.43;75.25
59190;BME280;50749;51.636;4.948;2023-10-13T09:45:33;100490.31;;;19.39;76.03
59190;BME280;50749;51.636;4.948;2023-10-13T09:48:09;100505.44;;;19.42;76.14
59190;BME280;50749;51.636;4.948;2023-10-13T09:50:44;100502.66;;;19.42;75.52
59190;BME280;50749;51.636;4.948;2023-10-13T09:53:11;100496.72;;;19.43;75.80
59190;BME280;50749;51.636;4.948;2023-10-13T09:56:37;100499.50;;;19.43;76.14
59190;BME280;50749;51.636;4.948;2023-10-13T10:01:43;100487.22;;;19.44;75.49
59190;BME280;50749;51.636;4.948;2023-10-13T10:04:17;100479.69;;;19.45;75.30
59190;BME280;50749;51.636;4.948;2023-10-13T10:06:57;100487.22;;;19.44;74.86
59190;BME280;50749;51.636;4.948;2023-10-13T10:09:29;100473.38;;;19.44;75.23
59190;BME280;50749;51.636;4.948;2023-10-13T10:17:46;100475.38;;;19.47;75.50
59190;BME280;50749;51.636;4.948;2023-10-13T10:20:13;100473.41;;;19.48;75.46
59190;BME280;50749;51.636;4.948;2023-10-13T10:22:59;100463.88;;;19.45;76.01
59190;BME280;50749;51.636;4.948;2023-10-13T10:25:33;100466.28;;;19.47;74.92
59190;BME280;50749;51.636;4.948;2023-10-13T10:28:07;100470.22;;;19.46;74.22
59190;BME280;50749;51.636;4.948;2023-10-13T10:30:36;100461.16;;;19.49;74.45
59190;BME280;50749;51.636;4.948;2023-10-13T10:33:05;100464.34;;;19.51;74.86
59190;BME280;50749;51.636;4.948;2023-10-13T10:35:45;100474.63;;;19.51;75.28
59190;BME280;50749;51.636;4.948;2023-10-13T10:38:16;100451.63;;;19.50;75.90
59190;BME280;50749;51.636;4.948;2023-10-13T10:46:15;100457.63;;;19.52;75.00
59190;BME280;50749;51.636;4.948;2023-10-13T10:48:41;100467.47;;;19.49;75.21
59190;BME280;50749;51.636;4.948;2023-10-13T10:51:12;100451.63;;;19.50;75.45
59190;BME280;50749;51.636;4.948;2023-10-13T10:54:00;100445.31;;;19.49;75.11
59190;BME280;50749;51.636;4.948;2023-10-13T10:56:38;100452.09;;;19.52;75.00
59190;BME280;50749;51.636;4.948;2023-10-13T10:59:06;100447.28;;;19.49;74.72
59190;BME280;50749;51.636;4.948;2023-10-13T11:01:45;100439.75;;;19.49;74.93
59190;BME280;50749;51.636;4.948;2023-10-13T11:04:16;100434.22;;;19.49;74.85
59190;BME280;50749;51.636;4.948;2023-10-13T11:06:55;100421.59;;;19.52;75.32
59190;BME280;50749;51.636;4.948;2023-10-13T11:09:33;100432.69;;;19.52;75.40
59190;BME280;50749;51.636;4.948;2023-10-13T11:12:55;100415.22;;;19.52;75.26
59190;BME280;50749;51.636;4.948;2023-10-13T11:15:49;100431.06;;;19.51;75.41
59190;BME280;50749;51.636;4.948;2023-10-13T11:18:30;100422.38;;;19.53;75.33
59190;BME280;50749;51.636;4.948;2023-10-13T11:21:06;100413.66;;;19.51;75.67
59190;BME280;50749;51.636;4.948;2023-10-13T11:23:36;100410.06;;;19.50;75.52
59190;BME280;50749;51.636;4.948;2023-10-13T11:26:35;100411.69;;;19.55;75.08
59190;BME280;50749;51.636;4.948;2023-10-13T11:29:18;100388.72;;;19.54;75.17
59190;BME280;50749;51.636;4.948;2023-10-13T11:31:52;100414.88;;;19.57;75.51
59190;BME280;50749;51.636;4.948;2023-10-13T11:34:46;100399.44;;;19.56;75.83
59190;BME280;50749;51.636;4.948;2023-10-13T11:37:38;100380.41;;;19.54;75.95
59190;BME280;50749;51.636;4.948;2023-10-13T11:40:27;100384.78;;;19.55;74.95
59190;BME280;50749;51.636;4.948;2023-10-13T11:43:52;100373.69;;;19.55;75.97
59190;BME280;50749;51.636;4.948;2023-10-13T11:46:50;100382.84;;;19.59;75.95
59190;BME280;50749;51.636;4.948;2023-10-13T11:50:01;100378.06;;;19.56;75.63
59190;BME280;50749;51.636;4.948;2023-10-13T11:53:10;100370.53;;;19.57;75.51
59190;BME280;50749;51.636;4.948;2023-10-13T11:56:11;100373.28;;;19.57;75.55
59190;BME280;50749;51.636;4.948;2023-10-13T11:58:58;100370.16;;;19.58;75.26
59190;BME280;50749;51.636;4.948;2023-10-13T12:01:27;100360.25;;;19.57;75.99
59190;BME280;50749;51.636;4.948;2023-10-13T12:04:13;100377.28;;;19.59;75.42
59190;BME280;50749;51.636;4.948;2023-10-13T12:06:58;100365.41;;;19.59;76.53
59190;BME280;50749;51.636;4.948;2023-10-13T12:09:58;100347.97;;;19.58;76.39
59190;BME280;50749;51.636;4.948;2023-10-13T12:12:31;100365.78;;;19.57;76.21
59190;BME280;50749;51.636;4.948;2023-10-13T12:15:03;100361.41;;;19.56;75.92
59190;BME280;50749;51.636;4.948;2023-10-13T12:17:35;100369.34;;;19.58;76.10
59190;BME280;50749;51.636;4.948;2023-10-13T12:20:03;100359.06;;;19.58;76.57
59190;BME280;50749;51.636;4.948;2023-10-13T12:22:31;100355.50;;;19.58;76.32
59190;BME280;50749;51.636;4.948;2023-10-13T12:25:18;100338.84;;;19.58;76.42
59190;BME280;50749;51.636;4.948;2023-10-13T12:27:54;100336.09;;;19.58;76.24
59190;BME280;50749;51.636;4.948;2023-10-13T12:30:26;100334.47;;;19.57;76.46
59190;BME280;50749;51.636;4.948;2023-10-13T12:33:04;100340.84;;;19.57;76.19
59190;BME280;50749;51.636;4.948;2023-10-13T12:35:39;100327.75;;;19.58;76.43
59190;BME280;50749;51.636;4.948;2023-10-13T12:38:24;100340.84;;;19.57;76.37
59190;BME280;50749;51.636;4.948;2023-10-13T12:41:23;100334.09;;;19.58;76.39
59190;BME280;50749;51.636;4.948;2023-10-13T12:44:07;100332.53;;;19.57;76.71
59190;BME280;50749;51.636;4.948;2023-10-13T12:46:52;100335.28;;;19.57;76.78
59190;BME280;50749;51.636;4.948;2023-10-13T12:49:36;100332.13;;;19.55;76.23
59190;BME280;50749;51.636;4.948;2023-10-13T12:52:09;100334.47;;;19.57;76.41
59190;BME280;50749;51.636;4.948;2023-10-13T12:54:45;100326.97;;;19.57;76.24
59190;BME280;50749;51.636;4.948;2023-10-13T12:57:29;100331.31;;;19.58;76.71
59190;BME280;50749;51.636;4.948;2023-10-13T12:59:56;100324.19;;;19.57;76.75
59190;BME280;50749;51.636;4.948;2023-10-13T13:02:26;100325.38;;;19.56;76.55
59190;BME280;50749;51.636;4.948;2023-10-13T13:04:56;100324.19;;;19.57;76.47
59190;BME280;50749;51.636;4.948;2023-10-13T13:07:32;100320.25;;;19.58;76.48
59190;BME280;50749;51.636;4.948;2023-10-13T13:10:10;100326.97;;;19.57;76.00
59190;BME280;50749;51.636;4.948;2023-10-13T13:12:37;100326.97;;;19.57;76.42
59190;BME280;50749;51.636;4.948;2023-10-13T13:15:04;100320.25;;;19.58;76.18
59190;BME280;50749;51.636;4.948;2023-10-13T13:17:35;100322.59;;;19.56;76.34
59190;BME280;50749;51.636;4.948;2023-10-13T13:20:01;100309.97;;;19.59;76.46
59190;BME280;50749;51.636;4.948;2023-10-13T13:22:37;100318.66;;;19.57;76.39
59190;BME280;50749;51.636;4.948;2023-10-13T13:25:04;100317.47;;;19.58;76.05
59190;BME280;50749;51.636;4.948;2023-10-13T13:27:35;100321.06;;;19.59;76.42
59190;BME280;50749;51.636;4.948;2023-10-13T13:30:04;100325.78;;;19.58;76.33
59190;BME280;50749;51.636;4.948;2023-10-13T13:32:39;100334.16;;;19.62;76.27
59190;BME280;50749;51.636;4.948;2023-10-13T13:35:14;100332.94;;;19.59;76.01
59190;BME280;50749;51.636;4.948;2023-10-13T13:38:02;100330.56;;;19.61;76.27
59190;BME280;50749;51.636;4.948;2023-10-13T13:40:39;100328.19;;;19.60;76.24
59190;BME280;50749;51.636;4.948;2023-10-13T13:43:05;100326.22;;;19.60;76.10
59190;BME280;50749;51.636;4.948;2023-10-13T13:45:32;100323.84;;;19.62;75.70
59190;BME280;50749;51.636;4.948;2023-10-13T13:48:00;100323.84;;;19.62;75.96
59190;BME280;50749;51.636;4.948;2023-10-13T13:50:37;100319.47;;;19.61;75.78
59190;BME280;50749;51.636;4.948;2023-10-13T13:53:07;100325.44;;;19.63;75.77